Mesquite, TX (75150)

5:53 AM CDT on March 30, 2015 (GMT -0500)
Mesquite (Town East) | | Change Station
CLOSE
Current Station
Personal Weather Station
Location: Mesquite, TX
Elevation: 525 ft
Nearby Weather Stations

Elev 525 ft 32.82 °N, 96.60 °W | Updated 14 minutes ago

Overcast
Overcast
60.6 °F
Feels Like 60.6 °F
N
0.0
Wind Variable Wind from SSE

Today
High -- | Low -- °F
--% Chance of Precip.
Yesterday
High -- | Low -- °F
Precip. -- in
7:17 AM 7:45 PM
Waxing Gibbous, 79% visible
Pressure 30.12 in
Visibility 10.0 miles
Clouds Overcast 1600 ft
Dew Point 57 °F
Humidity 89%
Rainfall 0.00 in
Snow Depth Not available.
UV 0 out of 12
Pollen 11.60 out of 12
Air Quality Not available.
Flu Activity Not available.
METAR KHQZ 301035Z AUTO 08005KT 10SM OVC016 17/15 A3012 RMK AO1 T01700148

More Conditions Fewer Conditions

Pressure 30.12 in
Visibility 10.0 miles
Clouds Overcast 1600 ft
Dew Point 57 °F
Humidity 89%
Rainfall 0.00 in
Snow Depth Not available.
UV 0 out of 12
Pollen 11.60 out of 12
Air Quality Not available.
Flu Activity Not available.
METAR KHQZ 301035Z AUTO 08005KT 10SM OVC016 17/15 A3012 RMK AO1 T01700148

More Conditions Fewer Conditions

10-Day Weather Forecast

Almanac

Astronomy

Mar. 30, 2015 Rise Set
Actual Time
Civil Twilight
Nautical Twilight
Astronomical Twilight
Moon
Length of Visible Light
Length of Day
Tomorrow will be .
, % of the Moon is Illuminated

Today's Extremes

State Highs State Lows

Community

WunderPhotos

Upload Photos

1,809,455 photos uploaded!

WunderBlogs® & News

Nearby

Air Quality

  Air Quality AQ Index Pollutant
Not available.

Snow Depth

Station Depth Elevation

Earthquake Activity

City Distance Mag. Time & Date
Minimum magnitude displayed is 2.5.

Coastal Water Temperatures

Place Temperature

Stations

Nearby Weather Stations

Station Location Temp. Windchill Dew Point Humidity Wind Precip. Elev Updated Type